メインページ
METAR-TAF:

METAR-TAF

空港 :

ベイルート, レバノン

緯度: 33-49N, 経度: 035-29E, 海抜: 29m

現時点の気象観測

当レポートは39分前の20:00(UTC)に作成
の風 16kt
気温 19°C
湿度 64%
気圧 1018 hPa
視程: 8000m
高度2900ftの千切れ雲あり
小雨

METAR: OLBA 112000Z 19016KT 8000 -RA BKN029 19/12 Q1018 NOSIG

時間: 22:39 (20:39 UTC)

予報

当レポートは4時間39分前の16:00(UTC)に作成
予報は11日の 18時(UTC)から 12日の 24時(UTC)まで有効
の風 10kt、最大25ktの突風を伴う
視程: 7000m
高度2300ftの雲はほとんどない, 塔状積雲.
高度2500ftの千切れ雲あり
確率 40% :
11日の 12時(UTC)から 12日の 18時(UTC)まで一時的に
南/南西の風 25kt、最大45ktの突風を伴う
視程: 5000m
高度1800ftの雲はほとんどない, 積乱雲.
高度2300ftの千切れ雲あり
激しい雷雨, 雨
12日の 06時(UTC)から 12日の 08時(UTC)まで徐々に
南西の風 25kt、最大40ktの突風を伴う
12日の 18時(UTC)から 12日の 20時(UTC)まで徐々に
の風 12kt、最大25ktの突風を伴う
視程: 8000m
高度2500ftの千切れ雲あり
小雨

TAF: OLBA 111600Z 1118/1224 17010G25KT 7000 RA FEW023TCU BKN025 PROB40 TEMPO 1112/1218 21025G45KT 5000 TSRA FEW018CB BKN023 BECMG 1206/1208 23025G40KT BECMG 1218/1220 17012G25KT 8000 -RA BKN025

4,000以上の空港の気象観測と天気予報(METAR報とTAF報)

利用可能な観測所は地図上に黄色い丸と赤い丸で示す。

丸の上にカーソルを重ねると観測所名を参照できる。

次にクリックすると気象観測と天気予報を参照できる。

マップの切り替え:黒色「×」印の緑ボタンをクリックして拡大、「-」印の緑ボタンをクリックして縮小、緑色の三角印をクリックして隣りの地図に切り替え


METAR-TAF: